createdAt,value
2022-09-14T00:01:41.193Z,89.74
2022-09-14T00:04:19.402Z,90.31
2022-09-14T00:06:50.424Z,90.33
2022-09-14T00:09:24.817Z,90.68
2022-09-14T00:11:55.109Z,90.81
2022-09-14T00:14:24.930Z,90.81
2022-09-14T00:16:54.759Z,90.72
2022-09-14T00:19:26.982Z,90.74
2022-09-14T00:21:59.306Z,91.01
2022-09-14T00:24:33.759Z,90.88
2022-09-14T00:27:07.659Z,91.13
2022-09-14T00:29:38.941Z,90.77
2022-09-14T00:32:09.111Z,90.57
2022-09-14T00:34:38.876Z,90.41
2022-09-14T00:37:08.219Z,89.01
2022-09-14T00:39:39.234Z,90.51
2022-09-14T00:42:09.400Z,91.14
2022-09-14T00:44:39.031Z,90.97
2022-09-14T00:47:08.988Z,91.25
2022-09-14T00:49:41.377Z,91.10
2022-09-14T00:52:18.114Z,92.01
2022-09-14T00:54:53.476Z,91.24
2022-09-14T00:57:25.020Z,91.12
2022-09-14T00:59:55.981Z,91.08
2022-09-14T01:02:28.729Z,91.19
2022-09-14T01:04:59.214Z,91.17
2022-09-14T01:07:39.709Z,91.16
2022-09-14T01:10:42.070Z,89.70
2022-09-14T01:13:48.235Z,89.99
2022-09-14T01:16:32.590Z,90.27
2022-09-14T01:19:07.880Z,90.35
2022-09-14T01:21:42.408Z,90.74
2022-09-14T01:24:48.978Z,90.37
2022-09-14T01:27:37.032Z,91.02
2022-09-14T01:30:09.801Z,89.83
2022-09-14T01:33:01.715Z,90.68
2022-09-14T01:35:50.541Z,90.91
2022-09-14T01:38:49.959Z,91.12
2022-09-14T01:41:27.035Z,91.00
2022-09-14T01:44:06.757Z,91.62
2022-09-14T01:46:53.040Z,91.73
2022-09-14T01:49:34.801Z,92.12
2022-09-14T01:52:15.893Z,92.71
2022-09-14T01:54:57.256Z,92.74
2022-09-14T01:57:33.708Z,93.24
2022-09-14T02:00:10.876Z,93.20
2022-09-14T02:02:53.663Z,93.12
2022-09-14T02:05:37.245Z,93.42
2022-09-14T02:08:07.448Z,93.40
2022-09-14T02:10:37.491Z,93.79
2022-09-14T02:13:08.334Z,94.08
2022-09-14T02:15:39.245Z,94.75
2022-09-14T02:18:10.160Z,95.09
2022-09-14T02:20:51.617Z,95.31
2022-09-14T02:23:21.660Z,95.79
2022-09-14T02:25:51.416Z,95.83
2022-09-14T02:28:24.218Z,95.99
2022-09-14T02:31:24.818Z,95.70
2022-09-14T02:34:30.597Z,95.93
2022-09-14T02:37:07.081Z,96.33
2022-09-14T02:40:05.328Z,96.47
2022-09-14T02:42:48.556Z,96.91
2022-09-14T02:45:40.830Z,97.18
2022-09-14T02:48:32.295Z,96.99
2022-09-14T02:51:17.724Z,97.19
2022-09-14T02:53:57.363Z,97.01
2022-09-14T02:56:29.856Z,96.90
2022-09-14T02:58:59.890Z,96.81
2022-09-14T03:01:29.191Z,95.84
2022-09-14T03:03:59.215Z,96.64
2022-09-14T03:06:29.035Z,96.84
2022-09-14T03:08:58.721Z,97.03
2022-09-14T03:11:27.989Z,96.06
2022-09-14T03:13:57.658Z,96.90
2022-09-14T03:16:26.917Z,95.90
2022-09-14T03:18:56.606Z,96.91
2022-09-14T03:21:25.823Z,96.14
2022-09-14T03:23:56.468Z,96.77
2022-09-14T03:26:28.617Z,96.72
2022-09-14T03:29:00.264Z,96.83
2022-09-14T03:31:30.166Z,96.65
2022-09-14T03:34:02.176Z,96.24
2022-09-14T03:36:33.066Z,95.60
2022-09-14T03:39:03.153Z,95.56
2022-09-14T03:41:32.865Z,95.68
2022-09-14T03:44:02.985Z,96.00
2022-09-14T03:46:32.958Z,96.02
2022-09-14T03:49:02.816Z,95.66
2022-09-14T03:51:32.503Z,95.07
2022-09-14T03:54:02.214Z,94.45
2022-09-14T03:56:32.562Z,94.29
2022-09-14T03:59:02.234Z,94.48
2022-09-14T04:01:31.502Z,93.83
2022-09-14T04:04:01.869Z,94.40
2022-09-14T04:06:31.600Z,94.34
2022-09-14T04:09:01.278Z,94.05
2022-09-14T04:11:32.580Z,93.62
2022-09-14T04:14:04.825Z,92.19
2022-09-14T04:16:35.091Z,92.14
2022-09-14T04:19:05.343Z,91.69
2022-09-14T04:21:35.298Z,91.10
2022-09-14T04:24:15.075Z,91.25
2022-09-14T04:26:47.552Z,90.80
2022-09-14T04:29:17.511Z,91.64
2022-09-14T04:31:48.040Z,91.56
2022-09-14T04:34:17.776Z,92.04
2022-09-14T04:36:46.952Z,91.42
2022-09-14T04:39:16.691Z,91.73
2022-09-14T04:41:46.362Z,91.91
2022-09-14T04:44:15.645Z,91.45
2022-09-14T04:46:47.061Z,92.57
2022-09-14T04:49:19.874Z,91.21
2022-09-14T04:51:50.507Z,91.33
2022-09-14T04:54:20.265Z,91.32
2022-09-14T04:56:50.022Z,91.19
2022-09-14T04:59:20.210Z,91.32
2022-09-14T05:01:50.144Z,91.37
2022-09-14T05:04:19.914Z,90.98
2022-09-14T05:06:51.258Z,91.13
2022-09-14T05:09:21.278Z,90.94
2022-09-14T05:11:52.885Z,91.43
2022-09-14T05:14:22.843Z,91.28
2022-09-14T05:16:52.942Z,91.87
2022-09-14T05:19:22.604Z,92.03
2022-09-14T05:21:51.794Z,91.42
2022-09-14T05:24:21.557Z,92.30
2022-09-14T05:26:59.451Z,91.77
2022-09-14T05:29:30.980Z,91.60
2022-09-14T05:32:01.276Z,91.76
2022-09-14T05:34:30.925Z,91.79
2022-09-14T05:37:00.119Z,91.36
2022-09-14T05:39:30.347Z,91.83
2022-09-14T05:42:00.091Z,91.69
2022-09-14T05:44:29.735Z,91.96
2022-09-14T05:46:58.970Z,91.18
2022-09-14T05:49:28.553Z,92.49
2022-09-14T05:51:58.263Z,92.68
2022-09-14T05:54:27.921Z,93.09
2022-09-14T05:56:57.112Z,92.41
2022-09-14T05:59:27.063Z,92.93
2022-09-14T06:01:57.102Z,93.72
2022-09-14T06:04:27.376Z,93.80
2022-09-14T06:07:17.296Z,93.80
2022-09-14T06:09:47.420Z,94.39
2022-09-14T06:12:17.105Z,94.12
2022-09-14T06:14:46.768Z,94.32
2022-09-14T06:17:15.958Z,93.73
2022-09-14T06:19:45.914Z,94.52
2022-09-14T06:22:15.580Z,94.50
2022-09-14T06:24:45.685Z,94.86
2022-09-14T06:27:16.506Z,94.98
2022-09-14T06:29:46.282Z,95.20
2022-09-14T06:32:15.948Z,95.20
2022-09-14T06:34:45.138Z,94.50
2022-09-14T06:37:14.903Z,95.57
2022-09-14T06:39:44.578Z,95.82
2022-09-14T06:42:14.359Z,95.92
2022-09-14T06:44:44.111Z,96.08
2022-09-14T06:47:13.800Z,96.24
2022-09-14T06:49:43.127Z,95.48
2022-09-14T06:52:12.697Z,96.49
2022-09-14T06:54:41.893Z,95.59
2022-09-14T06:57:11.463Z,97.04
2022-09-14T06:59:41.646Z,97.30
2022-09-14T07:02:13.945Z,97.22
2022-09-14T07:04:44.339Z,97.42
2022-09-14T07:07:17.863Z,97.30
2022-09-14T07:09:48.435Z,97.10
2022-09-14T07:12:18.733Z,97.12
2022-09-14T07:14:48.399Z,97.24
2022-09-14T07:17:17.816Z,96.66
2022-09-14T07:19:47.469Z,97.21
2022-09-14T07:22:16.651Z,96.51
2022-09-14T07:24:46.211Z,97.11
2022-09-14T07:27:15.978Z,97.18
2022-09-14T07:29:45.716Z,97.17
2022-09-14T07:32:15.792Z,96.58
2022-09-14T07:34:45.560Z,97.16
2022-09-14T07:37:15.222Z,97.16
2022-09-14T07:39:44.417Z,96.30
2022-09-14T07:42:14.031Z,96.98
2022-09-14T07:44:43.256Z,96.42
2022-09-14T07:47:12.830Z,96.78
2022-09-14T07:49:42.170Z,96.20
2022-09-14T07:52:12.793Z,96.73
2022-09-14T07:54:43.422Z,96.72
2022-09-14T07:57:13.173Z,97.25
2022-09-14T07:59:42.397Z,96.57
2022-09-14T08:02:13.628Z,97.20
2022-09-14T08:04:43.965Z,97.31
2022-09-14T08:07:13.883Z,97.26
2022-09-14T08:09:43.252Z,97.31
2022-09-14T08:12:13.272Z,97.27
2022-09-14T08:14:42.643Z,97.41
2022-09-14T08:17:12.208Z,97.29
2022-09-14T08:19:42.394Z,97.74
2022-09-14T08:22:11.819Z,98.05
2022-09-14T08:24:41.629Z,98.03
2022-09-14T08:27:12.749Z,97.89
2022-09-14T08:29:42.556Z,98.12
2022-09-14T08:32:15.372Z,97.99
2022-09-14T08:34:45.200Z,98.05
2022-09-14T08:37:15.024Z,98.00
2022-09-14T08:39:50.935Z,98.20
2022-09-14T08:42:26.103Z,97.85
2022-09-14T08:45:00.566Z,98.06
2022-09-14T08:47:39.988Z,97.96
2022-09-14T08:50:16.283Z,97.92
2022-09-14T08:52:55.017Z,97.86
2022-09-14T08:55:30.443Z,97.94
2022-09-14T08:58:19.388Z,98.54
2022-09-14T09:00:53.625Z,98.41
2022-09-14T09:03:39.412Z,98.27
2022-09-14T09:06:26.257Z,98.44
2022-09-14T09:09:21.112Z,98.54
2022-09-14T09:11:54.115Z,98.38
2022-09-14T09:14:32.970Z,98.44
2022-09-14T09:17:07.277Z,98.53
2022-09-14T09:19:49.023Z,98.49
2022-09-14T09:22:23.635Z,98.75
2022-09-14T09:24:56.501Z,98.80
2022-09-14T09:27:27.518Z,98.73
2022-09-14T09:29:57.432Z,98.51
2022-09-14T09:32:30.563Z,98.82
2022-09-14T09:35:23.637Z,98.60
2022-09-14T09:38:17.468Z,98.69
2022-09-14T09:41:01.639Z,98.48
2022-09-14T09:43:49.066Z,98.19
2022-09-14T09:46:19.812Z,97.90
2022-09-14T09:48:49.859Z,98.20
2022-09-14T09:51:25.850Z,98.06
2022-09-14T09:53:58.537Z,98.31
2022-09-14T09:56:34.076Z,98.19
2022-09-14T09:59:05.056Z,98.40
2022-09-14T10:01:37.275Z,98.17
2022-09-14T10:04:20.272Z,98.46
2022-09-14T10:06:52.785Z,97.89
2022-09-14T10:09:25.857Z,97.78
2022-09-14T10:12:02.011Z,98.30
2022-09-14T10:14:35.032Z,98.30
2022-09-14T10:17:23.338Z,98.32
2022-09-14T10:19:55.567Z,98.40
2022-09-14T10:22:38.042Z,98.45
2022-09-14T10:25:19.418Z,98.51
2022-09-14T10:27:56.468Z,98.30
2022-09-14T10:30:28.308Z,98.53
2022-09-14T10:33:07.588Z,98.70
2022-09-14T10:35:47.104Z,98.71
2022-09-14T10:38:43.577Z,98.68
2022-09-14T10:41:34.833Z,98.69
2022-09-14T10:44:32.355Z,98.06
2022-09-14T10:47:11.527Z,98.12
2022-09-14T10:49:42.098Z,97.55
2022-09-14T10:52:21.150Z,97.46
2022-09-14T10:55:17.754Z,97.57
2022-09-14T10:58:01.057Z,97.60
2022-09-14T11:00:37.267Z,97.87
2022-09-14T11:03:36.351Z,97.67
2022-09-14T11:06:20.927Z,97.82
2022-09-14T11:09:03.729Z,97.18
2022-09-14T11:11:50.649Z,97.38
2022-09-14T11:14:26.771Z,97.74
2022-09-14T11:17:17.173Z,97.00
2022-09-14T11:19:59.559Z,96.00
2022-09-14T11:22:40.306Z,96.41
2022-09-14T11:25:34.605Z,96.78
2022-09-14T11:28:45.726Z,95.81
2022-09-14T11:31:29.370Z,96.28
2022-09-14T11:34:24.511Z,95.94
2022-09-14T11:37:05.098Z,95.56
2022-09-14T11:39:44.154Z,93.39
2022-09-14T11:42:47.326Z,92.44
2022-09-14T11:45:47.121Z,92.93
2022-09-14T11:48:42.743Z,92.31
2022-09-14T11:51:50.044Z,93.36
2022-09-14T11:54:22.761Z,94.82
2022-09-14T11:56:57.068Z,94.44
2022-09-14T11:59:42.565Z,94.81
2022-09-14T12:02:24.781Z,94.64
2022-09-14T12:05:10.343Z,94.78
2022-09-14T12:07:49.617Z,94.33
2022-09-14T12:10:22.383Z,94.39
2022-09-14T12:12:53.849Z,94.50
2022-09-14T12:15:35.733Z,93.77
2022-09-14T12:18:08.546Z,89.10
2022-09-14T12:20:50.477Z,89.43
2022-09-14T12:23:34.137Z,91.45
2022-09-14T12:26:10.608Z,90.89
2022-09-14T12:28:49.375Z,90.60
2022-09-14T12:31:34.000Z,90.73
2022-09-14T12:34:24.334Z,90.71
2022-09-14T12:36:54.727Z,87.53
2022-09-14T12:39:26.237Z,84.29
2022-09-14T12:41:56.430Z,80.13
2022-09-14T12:44:34.664Z,82.40
2022-09-14T12:47:26.080Z,82.25
2022-09-14T12:50:01.574Z,80.13
2022-09-14T12:52:43.454Z,83.18
2022-09-14T12:55:43.305Z,82.13
2022-09-14T12:58:39.074Z,85.02
2022-09-14T13:01:27.834Z,87.64
2022-09-14T13:03:59.420Z,86.97
2022-09-14T13:06:46.593Z,89.39
2022-09-14T13:09:25.700Z,88.53
2022-09-14T13:12:03.499Z,89.50
2022-09-14T13:14:48.963Z,88.18
2022-09-14T13:17:19.152Z,88.22
2022-09-14T13:20:07.705Z,89.86
2022-09-14T13:22:44.192Z,86.97
2022-09-14T13:25:39.543Z,83.16
2022-09-14T13:28:16.821Z,75.41
2022-09-14T13:30:57.102Z,72.37
2022-09-14T13:33:27.384Z,72.29
2022-09-14T13:36:02.611Z,70.31
2022-09-14T13:38:38.532Z,71.71
2022-09-14T13:41:15.031Z,71.47
2022-09-14T13:43:46.493Z,72.68
2022-09-14T13:46:20.238Z,71.58
2022-09-14T13:48:51.467Z,73.18
2022-09-14T13:51:28.533Z,71.99
2022-09-14T13:54:01.434Z,73.87
2022-09-14T13:56:36.203Z,80.22
2022-09-14T13:59:09.996Z,85.04
2022-09-14T14:02:01.057Z,87.04
2022-09-14T14:04:36.391Z,88.15
2022-09-14T14:07:15.067Z,88.92
2022-09-14T14:09:48.262Z,85.42
2022-09-14T14:12:41.097Z,82.51
2022-09-14T14:15:13.984Z,79.20
2022-09-14T14:17:44.280Z,79.99
2022-09-14T14:20:32.022Z,81.86
2022-09-14T14:23:26.350Z,71.12
2022-09-14T14:26:10.361Z,70.52
2022-09-14T14:28:42.842Z,72.59
2022-09-14T14:31:21.254Z,74.45
2022-09-14T14:33:54.576Z,70.71
2022-09-14T14:36:25.554Z,67.81
2022-09-14T14:38:55.649Z,68.41
2022-09-14T14:41:25.423Z,70.19
2022-09-14T14:43:55.153Z,72.06
2022-09-14T14:46:26.230Z,73.10
2022-09-14T14:48:57.301Z,69.51
2022-09-14T14:51:27.341Z,74.24
2022-09-14T14:53:57.359Z,69.41
2022-09-14T14:56:27.104Z,68.52
2022-09-14T14:59:00.135Z,70.40
2022-09-14T15:01:32.144Z,68.96
2022-09-14T15:04:01.912Z,69.69
2022-09-14T15:06:31.646Z,68.89
2022-09-14T15:09:02.265Z,62.65
2022-09-14T15:11:32.947Z,67.81
2022-09-14T15:14:02.862Z,69.56
2022-09-14T15:16:32.708Z,65.32
2022-09-14T15:19:02.437Z,68.75
2022-09-14T15:21:32.414Z,68.88
2022-09-14T15:24:02.485Z,64.92
2022-09-14T15:26:32.307Z,63.88
2022-09-14T15:29:02.579Z,63.33
2022-09-14T15:31:32.638Z,60.45
2022-09-14T15:34:03.112Z,55.50
2022-09-14T15:36:53.644Z,59.96
2022-09-14T15:39:25.964Z,61.38
2022-09-14T15:41:57.419Z,58.70
2022-09-14T15:44:27.731Z,56.06
2022-09-14T15:46:58.487Z,58.26
2022-09-14T15:49:29.256Z,64.08
2022-09-14T15:51:59.563Z,65.33
2022-09-14T15:54:38.224Z,64.59
2022-09-14T15:57:11.730Z,68.35
2022-09-14T15:59:41.901Z,63.15
2022-09-14T16:02:13.454Z,59.91
2022-09-14T16:04:43.542Z,60.17
2022-09-14T16:07:13.476Z,64.05
2022-09-14T16:09:43.952Z,65.31
2022-09-14T16:12:15.016Z,63.58
2022-09-14T16:14:44.911Z,59.85
2022-09-14T16:17:14.669Z,56.96
2022-09-14T16:19:44.436Z,57.82
2022-09-14T16:22:14.120Z,57.47
2022-09-14T16:24:44.893Z,58.84
2022-09-14T16:27:14.767Z,56.99
2022-09-14T16:29:44.463Z,56.41
2022-09-14T16:32:14.261Z,60.36
2022-09-14T16:34:43.965Z,58.30
2022-09-14T16:37:13.938Z,60.09
2022-09-14T16:39:44.226Z,58.84
2022-09-14T16:42:13.937Z,60.06
2022-09-14T16:44:43.650Z,59.54
2022-09-14T16:47:13.349Z,56.22
2022-09-14T16:49:43.103Z,56.53
2022-09-14T16:52:13.223Z,52.30
2022-09-14T16:54:42.961Z,53.00
2022-09-14T16:57:13.594Z,51.97
2022-09-14T16:59:43.427Z,50.55
2022-09-14T17:02:13.279Z,55.49
2022-09-14T17:04:42.979Z,51.26
2022-09-14T17:07:12.740Z,52.76
2022-09-14T17:09:42.562Z,51.03
2022-09-14T17:12:12.702Z,53.75
2022-09-14T17:14:43.414Z,50.93
2022-09-14T17:17:13.296Z,51.99
2022-09-14T17:19:43.814Z,55.58
2022-09-14T17:22:14.195Z,53.28
2022-09-14T17:24:44.860Z,50.13
2022-09-14T17:27:14.522Z,53.76
2022-09-14T17:29:44.224Z,48.95
2022-09-14T17:32:15.036Z,49.64
2022-09-14T17:34:45.496Z,51.90
2022-09-14T17:37:15.174Z,52.50
2022-09-14T17:39:45.144Z,49.16
2022-09-14T17:42:14.849Z,50.64
2022-09-14T17:44:46.209Z,50.59
2022-09-14T17:47:16.525Z,52.36
2022-09-14T17:49:46.234Z,49.89
2022-09-14T17:52:16.118Z,51.90
2022-09-14T17:54:45.789Z,50.25
2022-09-14T17:57:15.468Z,52.07
2022-09-14T17:59:45.121Z,51.57
2022-09-14T18:02:14.934Z,55.02
2022-09-14T18:04:48.600Z,56.02
2022-09-14T18:07:18.814Z,52.58
2022-09-14T18:09:48.493Z,52.61
2022-09-14T18:12:18.954Z,53.61
2022-09-14T18:14:49.118Z,53.94
2022-09-14T18:17:18.813Z,52.19
2022-09-14T18:19:48.579Z,52.90
2022-09-14T18:22:18.976Z,54.88
2022-09-14T18:24:48.920Z,54.65
2022-09-14T18:27:18.836Z,52.37
2022-09-14T18:29:48.669Z,51.74
2022-09-14T18:32:18.467Z,51.73
2022-09-14T18:34:48.200Z,48.48
2022-09-14T18:37:17.884Z,48.77
2022-09-14T18:39:47.829Z,44.75
2022-09-14T18:42:17.555Z,44.02
2022-09-14T18:44:47.256Z,43.62
2022-09-14T18:47:20.011Z,43.72
2022-09-14T18:49:51.257Z,43.35
2022-09-14T18:52:21.278Z,42.34
2022-09-14T18:54:50.984Z,42.40
2022-09-14T18:57:21.082Z,43.91
2022-09-14T18:59:50.802Z,41.42
2022-09-14T19:02:20.804Z,42.43
2022-09-14T19:04:50.616Z,43.62
2022-09-14T19:07:20.269Z,44.51
2022-09-14T19:09:49.962Z,45.20
2022-09-14T19:12:19.976Z,43.90
2022-09-14T19:14:49.657Z,44.09
2022-09-14T19:17:19.362Z,45.14
2022-09-14T19:19:49.283Z,50.53
2022-09-14T19:22:18.950Z,57.06
2022-09-14T19:24:48.634Z,59.80
2022-09-14T19:27:18.802Z,63.27
2022-09-14T19:29:48.899Z,62.53
2022-09-14T19:32:19.703Z,64.71
2022-09-14T19:34:50.444Z,62.37
2022-09-14T19:37:20.135Z,61.99
2022-09-14T19:39:49.892Z,63.40
2022-09-14T19:42:22.657Z,58.74
2022-09-14T19:44:54.429Z,50.58
2022-09-14T19:47:24.441Z,49.00
2022-09-14T19:49:54.165Z,51.16
2022-09-14T19:52:24.213Z,61.69
2022-09-14T19:54:53.880Z,66.46
2022-09-14T19:57:23.590Z,69.29
2022-09-14T19:59:53.274Z,70.37
2022-09-14T20:02:23.037Z,71.54
2022-09-14T20:04:53.019Z,72.68
2022-09-14T20:07:22.700Z,73.57
2022-09-14T20:09:55.239Z,73.74
2022-09-14T20:12:26.291Z,74.18
2022-09-14T20:14:56.564Z,72.00
2022-09-14T20:17:26.362Z,72.66
2022-09-14T20:19:56.194Z,72.87
2022-09-14T20:22:25.916Z,72.59
2022-09-14T20:24:55.619Z,73.19
2022-09-14T20:27:25.500Z,73.04
2022-09-14T20:29:55.172Z,73.72
2022-09-14T20:32:26.246Z,70.48
2022-09-14T20:34:56.139Z,72.07
2022-09-14T20:37:25.859Z,72.19
2022-09-14T20:39:55.900Z,70.88
2022-09-14T20:42:25.625Z,70.41
2022-09-14T20:44:55.354Z,72.81
2022-09-14T20:47:25.953Z,73.16
2022-09-14T20:49:55.970Z,74.61
2022-09-14T20:52:25.969Z,74.63
2022-09-14T20:54:55.660Z,75.50
2022-09-14T20:57:25.420Z,76.22
2022-09-14T20:59:55.472Z,76.99
2022-09-14T21:02:25.170Z,77.80
2022-09-14T21:04:55.776Z,77.82
2022-09-14T21:07:27.321Z,79.11
2022-09-14T21:09:58.117Z,79.44
2022-09-14T21:12:28.382Z,80.11
2022-09-14T21:14:58.394Z,80.57
2022-09-14T21:17:28.078Z,80.68
2022-09-14T21:19:57.405Z,80.88
2022-09-14T21:22:26.988Z,82.28
2022-09-14T21:24:56.737Z,82.58
2022-09-14T21:27:26.737Z,82.87
2022-09-14T21:29:56.398Z,83.29
2022-09-14T21:32:25.598Z,80.51
2022-09-14T21:34:55.988Z,82.90
2022-09-14T21:37:27.685Z,83.27
2022-09-14T21:39:59.075Z,83.26
2022-09-14T21:42:31.014Z,84.23
2022-09-14T21:45:00.880Z,84.39
2022-09-14T21:47:30.098Z,81.66
2022-09-14T21:49:59.957Z,84.55
2022-09-14T21:52:29.713Z,84.03
2022-09-14T21:54:59.759Z,84.56
2022-09-14T21:57:29.896Z,84.64
2022-09-14T21:59:59.650Z,84.98
2022-09-14T22:02:29.603Z,85.07
2022-09-14T22:04:59.542Z,85.20
2022-09-14T22:07:30.240Z,85.38
2022-09-14T22:10:00.611Z,85.53
2022-09-14T22:12:32.106Z,85.73
2022-09-14T22:15:02.193Z,84.76
2022-09-14T22:17:33.034Z,84.82
2022-09-14T22:20:03.374Z,84.89
2022-09-14T22:22:33.314Z,85.09
2022-09-14T22:25:03.101Z,85.69
2022-09-14T22:27:33.138Z,85.37
2022-09-14T22:30:02.865Z,85.40
2022-09-14T22:32:32.693Z,85.36
2022-09-14T22:35:02.405Z,85.11
2022-09-14T22:37:32.111Z,84.15
2022-09-14T22:40:01.794Z,84.72
2022-09-14T22:42:32.834Z,84.53
2022-09-14T22:45:02.506Z,84.63
2022-09-14T22:47:32.176Z,85.18
2022-09-14T22:50:01.409Z,83.50
2022-09-14T22:52:30.988Z,85.07
2022-09-14T22:55:00.240Z,84.14
2022-09-14T22:57:29.801Z,85.37
2022-09-14T23:00:00.905Z,85.71
2022-09-14T23:02:31.081Z,85.69
2022-09-14T23:05:00.974Z,85.60
2022-09-14T23:07:32.131Z,86.08
2022-09-14T23:10:02.428Z,85.64
2022-09-14T23:12:32.124Z,85.35
2022-09-14T23:15:01.423Z,84.88
2022-09-14T23:17:31.080Z,85.93
2022-09-14T23:20:00.756Z,86.28
2022-09-14T23:22:30.024Z,85.76
2022-09-14T23:24:59.612Z,86.29
2022-09-14T23:27:29.783Z,86.27
2022-09-14T23:30:02.308Z,86.75
2022-09-14T23:32:33.006Z,87.08
2022-09-14T23:35:03.037Z,87.17
2022-09-14T23:37:32.716Z,87.71
2022-09-14T23:40:02.087Z,87.01
2022-09-14T23:42:32.419Z,87.61
2022-09-14T23:45:03.648Z,87.87
2022-09-14T23:47:33.634Z,88.27
2022-09-14T23:50:03.669Z,88.42
2022-09-14T23:52:33.578Z,88.34
2022-09-14T23:55:03.351Z,88.55
2022-09-14T23:57:33.285Z,89.16
